sensor_id;sensor_type;location;lat;lon;timestamp;P1;durP1;ratioP1;P2;durP2;ratioP2
45520;SDS011;61151;50.928;4.534;2022-09-13T00:01:25;4.03;;;2.45;;
45520;SDS011;61151;50.928;4.534;2022-09-13T00:03:51;8.27;;;2.72;;
45520;SDS011;61151;50.928;4.534;2022-09-13T00:06:18;5.85;;;2.88;;
45520;SDS011;61151;50.928;4.534;2022-09-13T00:08:47;7.05;;;2.90;;
45520;SDS011;61151;50.928;4.534;2022-09-13T00:11:22;3.17;;;2.00;;
45520;SDS011;61151;50.928;4.534;2022-09-13T00:13:49;5.20;;;2.15;;
45520;SDS011;61151;50.928;4.534;2022-09-13T00:16:19;5.18;;;1.90;;
45520;SDS011;61151;50.928;4.534;2022-09-13T00:18:46;2.88;;;1.95;;
45520;SDS011;61151;50.928;4.534;2022-09-13T00:21:14;4.75;;;2.70;;
45520;SDS011;61151;50.928;4.534;2022-09-13T00:23:48;5.72;;;2.78;;
45520;SDS011;61151;50.928;4.534;2022-09-13T00:26:17;5.03;;;2.85;;
45520;SDS011;61151;50.928;4.534;2022-09-13T00:28:44;6.10;;;2.65;;
45520;SDS011;61151;50.928;4.534;2022-09-13T00:31:11;5.43;;;2.30;;
45520;SDS011;61151;50.928;4.534;2022-09-13T00:33:37;3.70;;;2.15;;
45520;SDS011;61151;50.928;4.534;2022-09-13T00:36:05;4.28;;;2.67;;
45520;SDS011;61151;50.928;4.534;2022-09-13T00:38:33;3.88;;;2.30;;
45520;SDS011;61151;50.928;4.534;2022-09-13T00:41:00;5.80;;;2.60;;
45520;SDS011;61151;50.928;4.534;2022-09-13T00:46:07;3.42;;;2.15;;
45520;SDS011;61151;50.928;4.534;2022-09-13T00:48:34;5.78;;;2.50;;
45520;SDS011;61151;50.928;4.534;2022-09-13T00:51:01;4.90;;;2.70;;
45520;SDS011;61151;50.928;4.534;2022-09-13T00:53:32;5.53;;;2.30;;
45520;SDS011;61151;50.928;4.534;2022-09-13T00:56:00;3.53;;;2.20;;
45520;SDS011;61151;50.928;4.534;2022-09-13T01:00:54;3.67;;;2.70;;
45520;SDS011;61151;50.928;4.534;2022-09-13T01:03:26;3.50;;;2.25;;
45520;SDS011;61151;50.928;4.534;2022-09-13T01:06:17;4.75;;;2.35;;
45520;SDS011;61151;50.928;4.534;2022-09-13T01:08:42;5.60;;;2.45;;
45520;SDS011;61151;50.928;4.534;2022-09-13T01:11:13;4.72;;;2.63;;
45520;SDS011;61151;50.928;4.534;2022-09-13T01:13:41;5.40;;;2.03;;
45520;SDS011;61151;50.928;4.534;2022-09-13T01:16:08;4.00;;;2.00;;
45520;SDS011;61151;50.928;4.534;2022-09-13T01:18:36;5.13;;;2.15;;
45520;SDS011;61151;50.928;4.534;2022-09-13T01:39:05;3.97;;;2.00;;
45520;SDS011;61151;50.928;4.534;2022-09-13T01:41:41;3.65;;;2.30;;
45520;SDS011;61151;50.928;4.534;2022-09-13T01:49:21;4.20;;;2.15;;
45520;SDS011;61151;50.928;4.534;2022-09-13T01:51:53;5.32;;;2.20;;
45520;SDS011;61151;50.928;4.534;2022-09-13T01:57:08;2.80;;;1.70;;
45520;SDS011;61151;50.928;4.534;2022-09-13T02:02:27;3.65;;;2.15;;
45520;SDS011;61151;50.928;4.534;2022-09-13T02:05:17;5.43;;;2.40;;
45520;SDS011;61151;50.928;4.534;2022-09-13T02:07:52;5.85;;;2.42;;
45520;SDS011;61151;50.928;4.534;2022-09-13T02:10:28;4.10;;;2.45;;
45520;SDS011;61151;50.928;4.534;2022-09-13T02:12:56;3.42;;;2.10;;
45520;SDS011;61151;50.928;4.534;2022-09-13T02:16:07;3.40;;;2.28;;
45520;SDS011;61151;50.928;4.534;2022-09-13T02:18:27;5.60;;;2.53;;
45520;SDS011;61151;50.928;4.534;2022-09-13T02:20:57;4.03;;;2.03;;
45520;SDS011;61151;50.928;4.534;2022-09-13T02:23:28;5.53;;;2.10;;
45520;SDS011;61151;50.928;4.534;2022-09-13T02:25:57;2.97;;;1.85;;
45520;SDS011;61151;50.928;4.534;2022-09-13T02:28:27;3.65;;;1.98;;
45520;SDS011;61151;50.928;4.534;2022-09-13T02:30:54;3.72;;;2.25;;
45520;SDS011;61151;50.928;4.534;2022-09-13T02:33:34;6.03;;;2.47;;
45520;SDS011;61151;50.928;4.534;2022-09-13T02:36:04;4.68;;;2.17;;
45520;SDS011;61151;50.928;4.534;2022-09-13T02:38:32;4.35;;;2.05;;
45520;SDS011;61151;50.928;4.534;2022-09-13T02:41:08;3.90;;;2.53;;
45520;SDS011;61151;50.928;4.534;2022-09-13T02:43:39;3.17;;;1.95;;
45520;SDS011;61151;50.928;4.534;2022-09-13T02:46:19;4.32;;;2.08;;
45520;SDS011;61151;50.928;4.534;2022-09-13T02:48:49;3.10;;;2.13;;
45520;SDS011;61151;50.928;4.534;2022-09-13T02:59:09;4.05;;;2.40;;
45520;SDS011;61151;50.928;4.534;2022-09-13T03:01:39;3.47;;;2.10;;
45520;SDS011;61151;50.928;4.534;2022-09-13T03:04:07;2.78;;;1.70;;
45520;SDS011;61151;50.928;4.534;2022-09-13T03:06:33;2.75;;;1.90;;
45520;SDS011;61151;50.928;4.534;2022-09-13T03:09:01;2.65;;;1.98;;
45520;SDS011;61151;50.928;4.534;2022-09-13T03:15:17;4.30;;;1.92;;
45520;SDS011;61151;50.928;4.534;2022-09-13T03:17:13;2.22;;;2.00;;
45520;SDS011;61151;50.928;4.534;2022-09-13T03:24:49;2.30;;;1.77;;
45520;SDS011;61151;50.928;4.534;2022-09-13T03:27:19;2.83;;;2.15;;
45520;SDS011;61151;50.928;4.534;2022-09-13T03:29:57;3.00;;;2.10;;
45520;SDS011;61151;50.928;4.534;2022-09-13T03:32:28;2.55;;;2.05;;
45520;SDS011;61151;50.928;4.534;2022-09-13T03:37:46;3.08;;;1.88;;
45520;SDS011;61151;50.928;4.534;2022-09-13T03:40:20;2.83;;;2.38;;
45520;SDS011;61151;50.928;4.534;2022-09-13T03:42:49;4.38;;;1.98;;
45520;SDS011;61151;50.928;4.534;2022-09-13T03:45:20;2.58;;;1.80;;
45520;SDS011;61151;50.928;4.534;2022-09-13T03:47:48;2.95;;;1.75;;
45520;SDS011;61151;50.928;4.534;2022-09-13T03:50:17;5.55;;;2.20;;
45520;SDS011;61151;50.928;4.534;2022-09-13T03:52:46;2.85;;;1.85;;
45520;SDS011;61151;50.928;4.534;2022-09-13T03:55:13;4.30;;;2.10;;
45520;SDS011;61151;50.928;4.534;2022-09-13T03:57:43;2.78;;;1.90;;
45520;SDS011;61151;50.928;4.534;2022-09-13T04:00:11;2.83;;;1.90;;
45520;SDS011;61151;50.928;4.534;2022-09-13T04:02:38;3.15;;;1.80;;
45520;SDS011;61151;50.928;4.534;2022-09-13T04:05:04;2.13;;;1.83;;
45520;SDS011;61151;50.928;4.534;2022-09-13T04:07:32;2.83;;;2.05;;
45520;SDS011;61151;50.928;4.534;2022-09-13T04:09:58;2.65;;;1.90;;
45520;SDS011;61151;50.928;4.534;2022-09-13T04:12:25;4.55;;;2.50;;
45520;SDS011;61151;50.928;4.534;2022-09-13T04:14:53;5.47;;;1.80;;
45520;SDS011;61151;50.928;4.534;2022-09-13T04:17:20;2.88;;;2.05;;
45520;SDS011;61151;50.928;4.534;2022-09-13T04:19:46;2.28;;;1.65;;
45520;SDS011;61151;50.928;4.534;2022-09-13T04:22:13;4.82;;;2.20;;
45520;SDS011;61151;50.928;4.534;2022-09-13T04:24:40;3.25;;;2.00;;
45520;SDS011;61151;50.928;4.534;2022-09-13T04:27:08;3.25;;;2.20;;
45520;SDS011;61151;50.928;4.534;2022-09-13T04:29:35;3.28;;;2.13;;
45520;SDS011;61151;50.928;4.534;2022-09-13T04:32:01;2.58;;;1.77;;
45520;SDS011;61151;50.928;4.534;2022-09-13T04:34:28;2.55;;;1.50;;
45520;SDS011;61151;50.928;4.534;2022-09-13T04:36:55;2.88;;;2.03;;
45520;SDS011;61151;50.928;4.534;2022-09-13T04:39:22;2.95;;;1.95;;
45520;SDS011;61151;50.928;4.534;2022-09-13T04:41:51;2.00;;;1.80;;
45520;SDS011;61151;50.928;4.534;2022-09-13T04:44:20;2.75;;;1.63;;
45520;SDS011;61151;50.928;4.534;2022-09-13T04:46:47;2.20;;;1.80;;
45520;SDS011;61151;50.928;4.534;2022-09-13T04:49:15;2.65;;;1.63;;
45520;SDS011;61151;50.928;4.534;2022-09-13T04:51:42;4.03;;;1.58;;
45520;SDS011;61151;50.928;4.534;2022-09-13T04:54:09;3.45;;;1.83;;
45520;SDS011;61151;50.928;4.534;2022-09-13T04:56:41;4.18;;;1.90;;
45520;SDS011;61151;50.928;4.534;2022-09-13T04:59:08;2.70;;;1.60;;
45520;SDS011;61151;50.928;4.534;2022-09-13T05:01:36;3.97;;;1.83;;
45520;SDS011;61151;50.928;4.534;2022-09-13T05:04:03;3.20;;;1.83;;
45520;SDS011;61151;50.928;4.534;2022-09-13T05:06:29;2.17;;;1.70;;
45520;SDS011;61151;50.928;4.534;2022-09-13T05:08:56;2.72;;;2.13;;
45520;SDS011;61151;50.928;4.534;2022-09-13T05:11:24;2.42;;;1.33;;
45520;SDS011;61151;50.928;4.534;2022-09-13T05:13:51;2.58;;;1.70;;
45520;SDS011;61151;50.928;4.534;2022-09-13T05:16:20;2.92;;;1.70;;
45520;SDS011;61151;50.928;4.534;2022-09-13T05:18:47;2.28;;;1.75;;
45520;SDS011;61151;50.928;4.534;2022-09-13T05:21:14;2.05;;;1.83;;
45520;SDS011;61151;50.928;4.534;2022-09-13T05:23:40;3.13;;;1.83;;
45520;SDS011;61151;50.928;4.534;2022-09-13T05:26:07;3.47;;;1.73;;
45520;SDS011;61151;50.928;4.534;2022-09-13T05:28:34;2.70;;;1.70;;
45520;SDS011;61151;50.928;4.534;2022-09-13T05:33:44;2.40;;;1.95;;
45520;SDS011;61151;50.928;4.534;2022-09-13T05:36:10;2.45;;;1.88;;
45520;SDS011;61151;50.928;4.534;2022-09-13T05:38:37;2.30;;;1.40;;
45520;SDS011;61151;50.928;4.534;2022-09-13T05:41:04;2.67;;;1.85;;
45520;SDS011;61151;50.928;4.534;2022-09-13T05:43:32;2.85;;;2.13;;
45520;SDS011;61151;50.928;4.534;2022-09-13T05:46:06;4.28;;;2.08;;
45520;SDS011;61151;50.928;4.534;2022-09-13T05:48:34;2.97;;;1.50;;
45520;SDS011;61151;50.928;4.534;2022-09-13T05:51:04;6.47;;;2.17;;
45520;SDS011;61151;50.928;4.534;2022-09-13T05:53:32;2.38;;;1.60;;
45520;SDS011;61151;50.928;4.534;2022-09-13T05:55:59;4.43;;;1.83;;
45520;SDS011;61151;50.928;4.534;2022-09-13T05:58:26;2.22;;;1.63;;
45520;SDS011;61151;50.928;4.534;2022-09-13T06:00:53;2.15;;;1.52;;
45520;SDS011;61151;50.928;4.534;2022-09-13T06:03:20;2.78;;;1.80;;
45520;SDS011;61151;50.928;4.534;2022-09-13T06:05:47;4.72;;;1.90;;
45520;SDS011;61151;50.928;4.534;2022-09-13T06:08:14;2.35;;;1.52;;
45520;SDS011;61151;50.928;4.534;2022-09-13T06:10:41;2.78;;;1.90;;
45520;SDS011;61151;50.928;4.534;2022-09-13T06:13:08;4.10;;;2.30;;
45520;SDS011;61151;50.928;4.534;2022-09-13T06:15:34;2.65;;;1.50;;
45520;SDS011;61151;50.928;4.534;2022-09-13T06:18:07;1.87;;;1.50;;
45520;SDS011;61151;50.928;4.534;2022-09-13T06:20:34;8.60;;;3.30;;
45520;SDS011;61151;50.928;4.534;2022-09-13T06:23:01;2.95;;;1.70;;
45520;SDS011;61151;50.928;4.534;2022-09-13T06:25:28;2.80;;;1.98;;
45520;SDS011;61151;50.928;4.534;2022-09-13T06:27:56;2.75;;;1.60;;
45520;SDS011;61151;50.928;4.534;2022-09-13T06:30:22;2.90;;;1.90;;
45520;SDS011;61151;50.928;4.534;2022-09-13T06:32:49;5.32;;;2.28;;
45520;SDS011;61151;50.928;4.534;2022-09-13T06:35:15;2.47;;;1.80;;
45520;SDS011;61151;50.928;4.534;2022-09-13T06:37:43;4.95;;;2.05;;
45520;SDS011;61151;50.928;4.534;2022-09-13T06:40:09;5.55;;;2.20;;
45520;SDS011;61151;50.928;4.534;2022-09-13T06:42:36;2.15;;;1.50;;
45520;SDS011;61151;50.928;4.534;2022-09-13T06:45:03;4.65;;;1.65;;
45520;SDS011;61151;50.928;4.534;2022-09-13T06:47:30;4.30;;;1.88;;
45520;SDS011;61151;50.928;4.534;2022-09-13T06:49:56;3.25;;;1.60;;
45520;SDS011;61151;50.928;4.534;2022-09-13T06:52:24;2.13;;;1.80;;
45520;SDS011;61151;50.928;4.534;2022-09-13T06:54:50;3.65;;;1.60;;
45520;SDS011;61151;50.928;4.534;2022-09-13T06:57:17;2.20;;;1.73;;
45520;SDS011;61151;50.928;4.534;2022-09-13T06:59:44;2.85;;;1.60;;
45520;SDS011;61151;50.928;4.534;2022-09-13T07:02:10;2.85;;;1.88;;
45520;SDS011;61151;50.928;4.534;2022-09-13T07:04:38;3.38;;;1.73;;
45520;SDS011;61151;50.928;4.534;2022-09-13T07:07:08;3.10;;;1.80;;
45520;SDS011;61151;50.928;4.534;2022-09-13T07:09:35;4.78;;;1.52;;
45520;SDS011;61151;50.928;4.534;2022-09-13T07:12:03;2.65;;;1.73;;
45520;SDS011;61151;50.928;4.534;2022-09-13T07:14:30;2.47;;;1.45;;
45520;SDS011;61151;50.928;4.534;2022-09-13T07:16:57;3.55;;;1.70;;
45520;SDS011;61151;50.928;4.534;2022-09-13T07:19:24;2.15;;;1.85;;
45520;SDS011;61151;50.928;4.534;2022-09-13T07:21:55;4.35;;;1.65;;
45520;SDS011;61151;50.928;4.534;2022-09-13T07:24:22;2.70;;;1.65;;
45520;SDS011;61151;50.928;4.534;2022-09-13T07:26:49;2.90;;;1.85;;
45520;SDS011;61151;50.928;4.534;2022-09-13T07:29:18;2.63;;;1.80;;
45520;SDS011;61151;50.928;4.534;2022-09-13T07:31:45;3.13;;;1.95;;
45520;SDS011;61151;50.928;4.534;2022-09-13T07:34:13;2.72;;;2.10;;
45520;SDS011;61151;50.928;4.534;2022-09-13T07:36:40;2.40;;;1.60;;
45520;SDS011;61151;50.928;4.534;2022-09-13T07:39:07;3.10;;;1.70;;
45520;SDS011;61151;50.928;4.534;2022-09-13T07:41:40;1.90;;;1.40;;
45520;SDS011;61151;50.928;4.534;2022-09-13T07:44:08;2.17;;;1.75;;
45520;SDS011;61151;50.928;4.534;2022-09-13T07:46:36;3.53;;;1.80;;
45520;SDS011;61151;50.928;4.534;2022-09-13T07:49:05;4.57;;;1.90;;
45520;SDS011;61151;50.928;4.534;2022-09-13T07:51:32;4.72;;;1.95;;
45520;SDS011;61151;50.928;4.534;2022-09-13T07:54:00;3.60;;;2.13;;
45520;SDS011;61151;50.928;4.534;2022-09-13T07:56:30;6.63;;;2.58;;
45520;SDS011;61151;50.928;4.534;2022-09-13T07:58:57;6.40;;;2.25;;
45520;SDS011;61151;50.928;4.534;2022-09-13T08:01:36;5.53;;;2.50;;
45520;SDS011;61151;50.928;4.534;2022-09-13T08:04:04;5.65;;;2.55;;
45520;SDS011;61151;50.928;4.534;2022-09-13T08:06:32;8.07;;;2.80;;
45520;SDS011;61151;50.928;4.534;2022-09-13T08:08:59;6.80;;;2.63;;
45520;SDS011;61151;50.928;4.534;2022-09-13T08:11:29;4.70;;;3.05;;
45520;SDS011;61151;50.928;4.534;2022-09-13T08:13:57;9.02;;;2.88;;
45520;SDS011;61151;50.928;4.534;2022-09-13T08:16:24;6.75;;;2.95;;
45520;SDS011;61151;50.928;4.534;2022-09-13T08:18:52;8.98;;;2.83;;
45520;SDS011;61151;50.928;4.534;2022-09-13T08:21:19;9.27;;;2.70;;
45520;SDS011;61151;50.928;4.534;2022-09-13T08:23:46;8.57;;;3.42;;
45520;SDS011;61151;50.928;4.534;2022-09-13T08:26:13;9.88;;;3.17;;
45520;SDS011;61151;50.928;4.534;2022-09-13T08:28:40;8.10;;;3.05;;
45520;SDS011;61151;50.928;4.534;2022-09-13T08:31:08;8.07;;;3.15;;
45520;SDS011;61151;50.928;4.534;2022-09-13T08:33:36;6.80;;;2.85;;
45520;SDS011;61151;50.928;4.534;2022-09-13T08:36:03;6.07;;;2.53;;
45520;SDS011;61151;50.928;4.534;2022-09-13T08:38:30;7.22;;;2.78;;
45520;SDS011;61151;50.928;4.534;2022-09-13T08:40:57;7.25;;;3.60;;
45520;SDS011;61151;50.928;4.534;2022-09-13T08:46:10;8.25;;;2.72;;
45520;SDS011;61151;50.928;4.534;2022-09-13T08:48:40;6.07;;;2.80;;
45520;SDS011;61151;50.928;4.534;2022-09-13T08:51:16;9.00;;;3.33;;
45520;SDS011;61151;50.928;4.534;2022-09-13T08:53:47;6.78;;;2.75;;
45520;SDS011;61151;50.928;4.534;2022-09-13T08:56:17;8.38;;;3.15;;
45520;SDS011;61151;50.928;4.534;2022-09-13T09:06:45;7.30;;;2.90;;
45520;SDS011;61151;50.928;4.534;2022-09-13T09:09:14;4.78;;;2.60;;
45520;SDS011;61151;50.928;4.534;2022-09-13T09:14:16;9.85;;;4.90;;
45520;SDS011;61151;50.928;4.534;2022-09-13T09:16:50;9.23;;;3.40;;
45520;SDS011;61151;50.928;4.534;2022-09-13T09:19:23;6.22;;;3.17;;
45520;SDS011;61151;50.928;4.534;2022-09-13T09:24:22;10.10;;;3.05;;
45520;SDS011;61151;50.928;4.534;2022-09-13T09:26:49;8.02;;;3.15;;
45520;SDS011;61151;50.928;4.534;2022-09-13T09:29:20;8.07;;;3.08;;
45520;SDS011;61151;50.928;4.534;2022-09-13T09:37:21;11.93;;;3.88;;
45520;SDS011;61151;50.928;4.534;2022-09-13T09:39:48;32.47;;;8.55;;
45520;SDS011;61151;50.928;4.534;2022-09-13T09:42:16;44.78;;;11.60;;
45520;SDS011;61151;50.928;4.534;2022-09-13T09:44:48;42.70;;;11.30;;
45520;SDS011;61151;50.928;4.534;2022-09-13T09:47:17;47.17;;;12.80;;
45520;SDS011;61151;50.928;4.534;2022-09-13T09:49:56;46.88;;;12.25;;
45520;SDS011;61151;50.928;4.534;2022-09-13T09:52:40;35.45;;;10.15;;
45520;SDS011;61151;50.928;4.534;2022-09-13T09:55:11;28.05;;;8.63;;
45520;SDS011;61151;50.928;4.534;2022-09-13T10:00:15;27.05;;;7.70;;
45520;SDS011;61151;50.928;4.534;2022-09-13T10:02:42;20.88;;;6.88;;
45520;SDS011;61151;50.928;4.534;2022-09-13T10:05:09;17.90;;;6.78;;
45520;SDS011;61151;50.928;4.534;2022-09-13T10:07:38;21.92;;;6.03;;
45520;SDS011;61151;50.928;4.534;2022-09-13T10:10:52;19.92;;;5.78;;
45520;SDS011;61151;50.928;4.534;2022-09-13T10:12:53;9.23;;;4.53;;
45520;SDS011;61151;50.928;4.534;2022-09-13T10:15:25;14.70;;;4.95;;
45520;SDS011;61151;50.928;4.534;2022-09-13T10:20:28;14.25;;;5.15;;
45520;SDS011;61151;50.928;4.534;2022-09-13T10:23:10;12.25;;;4.28;;
45520;SDS011;61151;50.928;4.534;2022-09-13T10:25:37;10.57;;;4.50;;
45520;SDS011;61151;50.928;4.534;2022-09-13T10:28:04;11.93;;;4.38;;
45520;SDS011;61151;50.928;4.534;2022-09-13T10:30:36;11.88;;;4.03;;
45520;SDS011;61151;50.928;4.534;2022-09-13T10:33:04;10.98;;;4.82;;
45520;SDS011;61151;50.928;4.534;2022-09-13T10:35:31;14.63;;;4.78;;
45520;SDS011;61151;50.928;4.534;2022-09-13T10:37:58;11.32;;;4.40;;
45520;SDS011;61151;50.928;4.534;2022-09-13T10:40:27;9.75;;;3.90;;
45520;SDS011;61151;50.928;4.534;2022-09-13T10:42:55;9.52;;;4.05;;
45520;SDS011;61151;50.928;4.534;2022-09-13T10:45:24;13.13;;;4.32;;
45520;SDS011;61151;50.928;4.534;2022-09-13T10:47:57;17.45;;;5.80;;
45520;SDS011;61151;50.928;4.534;2022-09-13T10:50:29;21.30;;;7.45;;
45520;SDS011;61151;50.928;4.534;2022-09-13T10:52:57;25.80;;;7.88;;
45520;SDS011;61151;50.928;4.534;2022-09-13T10:58:10;24.42;;;7.70;;
45520;SDS011;61151;50.928;4.534;2022-09-13T11:06:35;22.65;;;6.57;;
45520;SDS011;61151;50.928;4.534;2022-09-13T11:08:55;15.52;;;6.13;;
45520;SDS011;61151;50.928;4.534;2022-09-13T11:11:45;13.13;;;5.47;;
45520;SDS011;61151;50.928;4.534;2022-09-13T11:24:47;11.55;;;4.97;;
45520;SDS011;61151;50.928;4.534;2022-09-13T11:27:22;11.52;;;5.07;;
45520;SDS011;61151;50.928;4.534;2022-09-13T11:37:48;9.63;;;4.25;;
45520;SDS011;61151;50.928;4.534;2022-09-13T11:45:23;8.43;;;3.38;;
45520;SDS011;61151;50.928;4.534;2022-09-13T11:55:37;7.32;;;3.17;;
45520;SDS011;61151;50.928;4.534;2022-09-13T12:00:59;10.05;;;3.72;;
45520;SDS011;61151;50.928;4.534;2022-09-13T12:08:36;10.68;;;3.25;;
45520;SDS011;61151;50.928;4.534;2022-09-13T12:11:20;7.25;;;3.20;;
45520;SDS011;61151;50.928;4.534;2022-09-13T12:16:22;7.63;;;3.15;;
45520;SDS011;61151;50.928;4.534;2022-09-13T12:18:52;5.70;;;3.38;;
45520;SDS011;61151;50.928;4.534;2022-09-13T12:21:20;7.72;;;3.17;;
45520;SDS011;61151;50.928;4.534;2022-09-13T12:24:11;5.28;;;2.83;;
45520;SDS011;61151;50.928;4.534;2022-09-13T12:26:51;6.03;;;3.13;;
45520;SDS011;61151;50.928;4.534;2022-09-13T12:29:23;5.10;;;2.35;;
45520;SDS011;61151;50.928;4.534;2022-09-13T12:31:51;8.07;;;3.28;;
45520;SDS011;61151;50.928;4.534;2022-09-13T12:34:22;4.95;;;2.75;;
45520;SDS011;61151;50.928;4.534;2022-09-13T12:50:00;5.40;;;2.97;;
45520;SDS011;61151;50.928;4.534;2022-09-13T12:52:56;5.88;;;2.67;;
45520;SDS011;61151;50.928;4.534;2022-09-13T12:58:42;4.68;;;2.70;;
45520;SDS011;61151;50.928;4.534;2022-09-13T13:01:13;5.22;;;2.50;;
45520;SDS011;61151;50.928;4.534;2022-09-13T13:03:45;6.40;;;2.85;;
45520;SDS011;61151;50.928;4.534;2022-09-13T13:08:55;4.63;;;3.05;;
45520;SDS011;61151;50.928;4.534;2022-09-13T13:11:25;4.30;;;2.28;;
45520;SDS011;61151;50.928;4.534;2022-09-13T13:16:23;8.52;;;2.67;;
45520;SDS011;61151;50.928;4.534;2022-09-13T13:18:52;4.63;;;2.70;;
45520;SDS011;61151;50.928;4.534;2022-09-13T13:21:27;3.45;;;2.50;;
45520;SDS011;61151;50.928;4.534;2022-09-13T13:24:56;7.13;;;2.67;;
45520;SDS011;61151;50.928;4.534;2022-09-13T13:26:52;6.13;;;2.90;;
45520;SDS011;61151;50.928;4.534;2022-09-13T13:29:31;7.82;;;3.15;;
45520;SDS011;61151;50.928;4.534;2022-09-13T13:34:37;5.68;;;3.25;;
45520;SDS011;61151;50.928;4.534;2022-09-13T13:37:20;5.38;;;2.85;;
45520;SDS011;61151;50.928;4.534;2022-09-13T13:42:36;6.10;;;3.08;;
45520;SDS011;61151;50.928;4.534;2022-09-13T13:45:12;6.13;;;2.60;;
45520;SDS011;61151;50.928;4.534;2022-09-13T13:47:41;8.77;;;3.30;;
45520;SDS011;61151;50.928;4.534;2022-09-13T13:52:38;7.13;;;2.70;;
45520;SDS011;61151;50.928;4.534;2022-09-13T14:00:23;7.22;;;3.30;;
45520;SDS011;61151;50.928;4.534;2022-09-13T14:10:13;8.45;;;3.38;;
45520;SDS011;61151;50.928;4.534;2022-09-13T14:12:48;7.25;;;3.95;;
45520;SDS011;61151;50.928;4.534;2022-09-13T14:15:26;5.47;;;3.33;;
45520;SDS011;61151;50.928;4.534;2022-09-13T14:20:23;8.23;;;4.75;;
45520;SDS011;61151;50.928;4.534;2022-09-13T14:22:50;10.55;;;4.65;;
45520;SDS011;61151;50.928;4.534;2022-09-13T14:27:43;8.98;;;4.40;;
45520;SDS011;61151;50.928;4.534;2022-09-13T14:30:17;9.70;;;4.43;;
45520;SDS011;61151;50.928;4.534;2022-09-13T14:32:46;9.88;;;4.70;;
45520;SDS011;61151;50.928;4.534;2022-09-13T14:37:48;10.02;;;5.03;;
45520;SDS011;61151;50.928;4.534;2022-09-13T14:40:16;9.48;;;4.38;;
45520;SDS011;61151;50.928;4.534;2022-09-13T14:42:44;8.82;;;3.33;;
45520;SDS011;61151;50.928;4.534;2022-09-13T14:45:15;9.05;;;3.67;;
45520;SDS011;61151;50.928;4.534;2022-09-13T14:50:21;5.35;;;2.97;;
45520;SDS011;61151;50.928;4.534;2022-09-13T14:52:50;5.97;;;3.08;;
45520;SDS011;61151;50.928;4.534;2022-09-13T14:55:52;7.68;;;3.45;;
45520;SDS011;61151;50.928;4.534;2022-09-13T15:00:47;5.32;;;2.85;;
45520;SDS011;61151;50.928;4.534;2022-09-13T15:03:14;7.73;;;3.50;;
45520;SDS011;61151;50.928;4.534;2022-09-13T15:05:48;8.75;;;3.30;;
45520;SDS011;61151;50.928;4.534;2022-09-13T15:11:01;5.45;;;3.30;;
45520;SDS011;61151;50.928;4.534;2022-09-13T15:13:28;8.60;;;3.33;;
45520;SDS011;61151;50.928;4.534;2022-09-13T15:15:55;9.10;;;3.33;;
45520;SDS011;61151;50.928;4.534;2022-09-13T15:18:28;7.18;;;3.13;;
45520;SDS011;61151;50.928;4.534;2022-09-13T15:21:05;8.00;;;3.42;;
45520;SDS011;61151;50.928;4.534;2022-09-13T15:23:39;6.25;;;3.30;;
45520;SDS011;61151;50.928;4.534;2022-09-13T15:26:22;6.53;;;2.85;;
45520;SDS011;61151;50.928;4.534;2022-09-13T15:28:54;7.18;;;3.22;;
45520;SDS011;61151;50.928;4.534;2022-09-13T15:31:26;6.18;;;3.58;;
45520;SDS011;61151;50.928;4.534;2022-09-13T15:36:42;5.43;;;3.00;;
45520;SDS011;61151;50.928;4.534;2022-09-13T15:41:36;3.88;;;3.03;;
45520;SDS011;61151;50.928;4.534;2022-09-13T15:44:04;6.57;;;3.15;;
45520;SDS011;61151;50.928;4.534;2022-09-13T15:46:31;8.02;;;3.05;;
45520;SDS011;61151;50.928;4.534;2022-09-13T15:49:03;5.03;;;3.13;;
45520;SDS011;61151;50.928;4.534;2022-09-13T15:51:31;5.90;;;3.00;;
45520;SDS011;61151;50.928;4.534;2022-09-13T15:54:04;7.87;;;3.57;;
45520;SDS011;61151;50.928;4.534;2022-09-13T15:56:35;5.90;;;3.20;;
45520;SDS011;61151;50.928;4.534;2022-09-13T15:59:05;5.55;;;3.53;;
45520;SDS011;61151;50.928;4.534;2022-09-13T16:01:32;5.80;;;2.80;;
45520;SDS011;61151;50.928;4.534;2022-09-13T16:03:58;5.63;;;3.10;;
45520;SDS011;61151;50.928;4.534;2022-09-13T16:06:29;6.35;;;2.95;;
45520;SDS011;61151;50.928;4.534;2022-09-13T16:08:56;7.78;;;3.10;;
45520;SDS011;61151;50.928;4.534;2022-09-13T16:11:22;7.82;;;3.28;;
45520;SDS011;61151;50.928;4.534;2022-09-13T16:13:49;4.90;;;3.33;;
45520;SDS011;61151;50.928;4.534;2022-09-13T16:16:16;4.97;;;3.20;;
45520;SDS011;61151;50.928;4.534;2022-09-13T16:18:45;4.85;;;2.72;;
45520;SDS011;61151;50.928;4.534;2022-09-13T16:21:11;7.03;;;3.33;;
45520;SDS011;61151;50.928;4.534;2022-09-13T16:23:38;6.97;;;2.78;;
45520;SDS011;61151;50.928;4.534;2022-09-13T16:26:05;4.55;;;2.83;;
45520;SDS011;61151;50.928;4.534;2022-09-13T16:28:31;7.05;;;2.75;;
45520;SDS011;61151;50.928;4.534;2022-09-13T16:31:00;4.57;;;2.60;;
45520;SDS011;61151;50.928;4.534;2022-09-13T16:33:27;7.32;;;3.55;;
45520;SDS011;61151;50.928;4.534;2022-09-13T16:35:54;5.93;;;3.85;;
45520;SDS011;61151;50.928;4.534;2022-09-13T16:38:26;5.15;;;3.20;;
45520;SDS011;61151;50.928;4.534;2022-09-13T16:40:53;5.63;;;3.10;;
45520;SDS011;61151;50.928;4.534;2022-09-13T16:43:20;4.07;;;3.13;;
45520;SDS011;61151;50.928;4.534;2022-09-13T16:45:46;4.90;;;3.10;;
45520;SDS011;61151;50.928;4.534;2022-09-13T16:48:15;7.38;;;3.00;;
45520;SDS011;61151;50.928;4.534;2022-09-13T16:50:42;6.10;;;3.20;;
45520;SDS011;61151;50.928;4.534;2022-09-13T16:53:08;5.13;;;2.90;;
45520;SDS011;61151;50.928;4.534;2022-09-13T16:55:35;5.65;;;3.05;;
45520;SDS011;61151;50.928;4.534;2022-09-13T16:58:02;11.50;;;3.58;;
45520;SDS011;61151;50.928;4.534;2022-09-13T17:00:28;4.82;;;2.67;;
45520;SDS011;61151;50.928;4.534;2022-09-13T17:02:55;5.03;;;2.83;;
45520;SDS011;61151;50.928;4.534;2022-09-13T17:05:22;4.63;;;2.72;;
45520;SDS011;61151;50.928;4.534;2022-09-13T17:07:50;5.70;;;3.00;;
45520;SDS011;61151;50.928;4.534;2022-09-13T17:10:17;5.47;;;2.95;;
45520;SDS011;61151;50.928;4.534;2022-09-13T17:12:43;5.00;;;3.15;;
45520;SDS011;61151;50.928;4.534;2022-09-13T17:15:10;4.53;;;2.78;;
45520;SDS011;61151;50.928;4.534;2022-09-13T17:17:36;3.88;;;2.72;;
45520;SDS011;61151;50.928;4.534;2022-09-13T17:20:04;5.65;;;2.67;;
45520;SDS011;61151;50.928;4.534;2022-09-13T17:22:33;6.80;;;3.05;;
45520;SDS011;61151;50.928;4.534;2022-09-13T17:24:59;6.55;;;2.92;;
45520;SDS011;61151;50.928;4.534;2022-09-13T17:27:26;7.53;;;2.83;;
45520;SDS011;61151;50.928;4.534;2022-09-13T17:29:53;3.58;;;2.40;;
45520;SDS011;61151;50.928;4.534;2022-09-13T17:32:20;4.78;;;3.00;;
45520;SDS011;61151;50.928;4.534;2022-09-13T17:34:46;5.40;;;3.13;;
45520;SDS011;61151;50.928;4.534;2022-09-13T17:37:13;5.70;;;2.72;;
45520;SDS011;61151;50.928;4.534;2022-09-13T17:39:40;6.15;;;2.90;;
45520;SDS011;61151;50.928;4.534;2022-09-13T17:42:06;4.47;;;2.55;;
45520;SDS011;61151;50.928;4.534;2022-09-13T17:44:33;5.43;;;3.15;;
45520;SDS011;61151;50.928;4.534;2022-09-13T17:46:59;4.97;;;2.63;;
45520;SDS011;61151;50.928;4.534;2022-09-13T17:49:27;3.60;;;2.65;;
45520;SDS011;61151;50.928;4.534;2022-09-13T17:51:54;3.67;;;2.80;;
45520;SDS011;61151;50.928;4.534;2022-09-13T17:54:21;4.32;;;2.55;;
45520;SDS011;61151;50.928;4.534;2022-09-13T17:56:49;2.85;;;2.20;;
45520;SDS011;61151;50.928;4.534;2022-09-13T17:59:19;3.72;;;2.58;;
45520;SDS011;61151;50.928;4.534;2022-09-13T18:01:47;4.35;;;2.60;;
45520;SDS011;61151;50.928;4.534;2022-09-13T18:04:15;5.93;;;2.90;;
45520;SDS011;61151;50.928;4.534;2022-09-13T18:06:42;3.47;;;2.42;;
45520;SDS011;61151;50.928;4.534;2022-09-13T18:09:10;5.75;;;3.10;;
45520;SDS011;61151;50.928;4.534;2022-09-13T18:11:36;3.00;;;2.33;;
45520;SDS011;61151;50.928;4.534;2022-09-13T18:14:03;3.35;;;2.60;;